sensor_id;sensor_type;location;lat;lon;timestamp;temperature;humidity
72814;DHT22;60945;48.516;-2.768;2024-03-08T00:01:15;9.70;65.40
72814;DHT22;60945;48.516;-2.768;2024-03-08T00:03:42;9.70;65.40
72814;DHT22;60945;48.516;-2.768;2024-03-08T00:06:08;9.80;65.40
72814;DHT22;60945;48.516;-2.768;2024-03-08T00:08:33;9.70;65.10
72814;DHT22;60945;48.516;-2.768;2024-03-08T00:10:59;9.70;65.20
72814;DHT22;60945;48.516;-2.768;2024-03-08T00:13:24;9.70;65.10
72814;DHT22;60945;48.516;-2.768;2024-03-08T00:15:50;9.60;65.00
72814;DHT22;60945;48.516;-2.768;2024-03-08T00:18:16;9.50;65.20
72814;DHT22;60945;48.516;-2.768;2024-03-08T00:20:42;9.50;65.10
72814;DHT22;60945;48.516;-2.768;2024-03-08T00:23:09;9.50;65.00
72814;DHT22;60945;48.516;-2.768;2024-03-08T00:25:36;9.60;64.90
72814;DHT22;60945;48.516;-2.768;2024-03-08T00:28:02;9.60;64.80
72814;DHT22;60945;48.516;-2.768;2024-03-08T00:30:30;9.60;64.80
72814;DHT22;60945;48.516;-2.768;2024-03-08T00:32:59;9.60;64.80
72814;DHT22;60945;48.516;-2.768;2024-03-08T00:35:25;9.50;64.60
72814;DHT22;60945;48.516;-2.768;2024-03-08T00:37:50;9.40;65.00
72814;DHT22;60945;48.516;-2.768;2024-03-08T00:40:16;9.40;65.10
72814;DHT22;60945;48.516;-2.768;2024-03-08T00:42:42;9.40;65.20
72814;DHT22;60945;48.516;-2.768;2024-03-08T00:45:09;9.50;64.90
72814;DHT22;60945;48.516;-2.768;2024-03-08T00:47:35;9.50;64.90
72814;DHT22;60945;48.516;-2.768;2024-03-08T00:50:01;9.40;65.00
72814;DHT22;60945;48.516;-2.768;2024-03-08T00:52:29;9.50;64.90
72814;DHT22;60945;48.516;-2.768;2024-03-08T00:54:55;9.50;64.90
72814;DHT22;60945;48.516;-2.768;2024-03-08T00:57:20;9.50;64.60
72814;DHT22;60945;48.516;-2.768;2024-03-08T00:59:47;9.50;64.60
72814;DHT22;60945;48.516;-2.768;2024-03-08T01:02:13;9.40;64.80
72814;DHT22;60945;48.516;-2.768;2024-03-08T01:04:39;9.40;64.80
72814;DHT22;60945;48.516;-2.768;2024-03-08T01:07:05;9.50;64.80
72814;DHT22;60945;48.516;-2.768;2024-03-08T01:09:31;9.40;65.20
72814;DHT22;60945;48.516;-2.768;2024-03-08T01:11:57;9.40;65.10
72814;DHT22;60945;48.516;-2.768;2024-03-08T01:14:23;9.30;65.30
72814;DHT22;60945;48.516;-2.768;2024-03-08T01:16:51;9.30;65.40
72814;DHT22;60945;48.516;-2.768;2024-03-08T01:19:17;9.40;65.30
72814;DHT22;60945;48.516;-2.768;2024-03-08T01:21:43;9.40;65.40
72814;DHT22;60945;48.516;-2.768;2024-03-08T01:24:09;9.40;65.40
72814;DHT22;60945;48.516;-2.768;2024-03-08T01:26:34;9.30;65.50
72814;DHT22;60945;48.516;-2.768;2024-03-08T01:29:01;9.30;65.90
72814;DHT22;60945;48.516;-2.768;2024-03-08T01:31:29;9.30;65.90
72814;DHT22;60945;48.516;-2.768;2024-03-08T01:33:55;9.40;65.70
72814;DHT22;60945;48.516;-2.768;2024-03-08T01:36:21;9.30;66.00
72814;DHT22;60945;48.516;-2.768;2024-03-08T01:38:47;9.20;66.30
72814;DHT22;60945;48.516;-2.768;2024-03-08T01:41:12;9.20;66.20
72814;DHT22;60945;48.516;-2.768;2024-03-08T01:43:38;9.30;66.20
72814;DHT22;60945;48.516;-2.768;2024-03-08T01:46:05;9.20;66.20
72814;DHT22;60945;48.516;-2.768;2024-03-08T01:48:31;9.30;66.40
72814;DHT22;60945;48.516;-2.768;2024-03-08T01:50:57;9.20;66.30
72814;DHT22;60945;48.516;-2.768;2024-03-08T01:53:24;9.30;66.30
72814;DHT22;60945;48.516;-2.768;2024-03-08T01:55:55;9.30;66.10
72814;DHT22;60945;48.516;-2.768;2024-03-08T01:58:22;9.30;65.90
72814;DHT22;60945;48.516;-2.768;2024-03-08T02:00:49;9.30;66.00
72814;DHT22;60945;48.516;-2.768;2024-03-08T02:03:15;9.30;66.20
72814;DHT22;60945;48.516;-2.768;2024-03-08T02:05:41;9.30;65.90
72814;DHT22;60945;48.516;-2.768;2024-03-08T02:08:08;9.40;65.90
72814;DHT22;60945;48.516;-2.768;2024-03-08T02:10:38;9.40;65.70
72814;DHT22;60945;48.516;-2.768;2024-03-08T02:13:04;9.40;65.80
72814;DHT22;60945;48.516;-2.768;2024-03-08T02:18:18;9.40;66.10
72814;DHT22;60945;48.516;-2.768;2024-03-08T02:20:45;9.40;65.50
72814;DHT22;60945;48.516;-2.768;2024-03-08T02:23:13;9.30;65.80
72814;DHT22;60945;48.516;-2.768;2024-03-08T02:25:40;9.30;66.10
72814;DHT22;60945;48.516;-2.768;2024-03-08T02:28:10;9.30;66.00
72814;DHT22;60945;48.516;-2.768;2024-03-08T02:30:36;9.20;66.50
72814;DHT22;60945;48.516;-2.768;2024-03-08T02:33:02;9.20;66.50
72814;DHT22;60945;48.516;-2.768;2024-03-08T02:35:28;9.20;66.60
72814;DHT22;60945;48.516;-2.768;2024-03-08T02:37:53;9.10;66.80
72814;DHT22;60945;48.516;-2.768;2024-03-08T02:40:19;9.10;66.90
72814;DHT22;60945;48.516;-2.768;2024-03-08T02:42:44;9.10;67.00
72814;DHT22;60945;48.516;-2.768;2024-03-08T02:45:10;9.10;67.20
72814;DHT22;60945;48.516;-2.768;2024-03-08T02:47:36;9.00;67.10
72814;DHT22;60945;48.516;-2.768;2024-03-08T02:50:02;9.00;67.40
72814;DHT22;60945;48.516;-2.768;2024-03-08T02:52:29;9.00;67.40
72814;DHT22;60945;48.516;-2.768;2024-03-08T02:54:54;9.00;67.40
72814;DHT22;60945;48.516;-2.768;2024-03-08T02:57:20;9.00;67.50
72814;DHT22;60945;48.516;-2.768;2024-03-08T02:59:45;8.90;67.50
72814;DHT22;60945;48.516;-2.768;2024-03-08T03:02:11;9.00;67.60
72814;DHT22;60945;48.516;-2.768;2024-03-08T03:04:40;9.10;67.20
72814;DHT22;60945;48.516;-2.768;2024-03-08T03:07:06;9.10;67.30
72814;DHT22;60945;48.516;-2.768;2024-03-08T03:09:31;9.10;67.10
72814;DHT22;60945;48.516;-2.768;2024-03-08T03:11:58;9.10;67.30
72814;DHT22;60945;48.516;-2.768;2024-03-08T03:14:24;9.10;67.10
72814;DHT22;60945;48.516;-2.768;2024-03-08T03:16:52;9.10;66.90
72814;DHT22;60945;48.516;-2.768;2024-03-08T03:19:18;9.20;66.90
72814;DHT22;60945;48.516;-2.768;2024-03-08T03:21:43;9.10;66.90
72814;DHT22;60945;48.516;-2.768;2024-03-08T03:24:09;9.10;66.90
72814;DHT22;60945;48.516;-2.768;2024-03-08T03:26:39;9.10;67.20
72814;DHT22;60945;48.516;-2.768;2024-03-08T03:29:06;9.00;67.30
72814;DHT22;60945;48.516;-2.768;2024-03-08T03:31:32;9.00;67.60
72814;DHT22;60945;48.516;-2.768;2024-03-08T03:33:57;9.00;67.60
72814;DHT22;60945;48.516;-2.768;2024-03-08T03:36:30;9.00;67.50
72814;DHT22;60945;48.516;-2.768;2024-03-08T03:38:56;9.00;67.80
72814;DHT22;60945;48.516;-2.768;2024-03-08T03:41:36;9.10;67.50
72814;DHT22;60945;48.516;-2.768;2024-03-08T03:44:02;9.10;67.70
72814;DHT22;60945;48.516;-2.768;2024-03-08T03:46:28;9.10;67.70
72814;DHT22;60945;48.516;-2.768;2024-03-08T03:48:56;9.00;68.00
72814;DHT22;60945;48.516;-2.768;2024-03-08T03:51:21;8.90;68.20
72814;DHT22;60945;48.516;-2.768;2024-03-08T03:53:47;9.00;68.10
72814;DHT22;60945;48.516;-2.768;2024-03-08T03:56:13;9.00;67.80
72814;DHT22;60945;48.516;-2.768;2024-03-08T03:58:39;9.00;67.90
72814;DHT22;60945;48.516;-2.768;2024-03-08T04:01:05;8.90;68.10
72814;DHT22;60945;48.516;-2.768;2024-03-08T04:03:31;9.00;67.80
72814;DHT22;60945;48.516;-2.768;2024-03-08T04:05:57;9.00;68.10
72814;DHT22;60945;48.516;-2.768;2024-03-08T04:08:22;9.00;68.20
72814;DHT22;60945;48.516;-2.768;2024-03-08T04:10:51;8.90;68.10
72814;DHT22;60945;48.516;-2.768;2024-03-08T04:13:17;8.90;68.30
72814;DHT22;60945;48.516;-2.768;2024-03-08T04:15:42;9.00;68.30
72814;DHT22;60945;48.516;-2.768;2024-03-08T04:18:13;8.90;68.40
72814;DHT22;60945;48.516;-2.768;2024-03-08T04:20:39;9.00;68.20
72814;DHT22;60945;48.516;-2.768;2024-03-08T04:23:06;8.90;68.40
72814;DHT22;60945;48.516;-2.768;2024-03-08T04:25:31;9.00;68.30
72814;DHT22;60945;48.516;-2.768;2024-03-08T04:27:57;8.90;68.40
72814;DHT22;60945;48.516;-2.768;2024-03-08T04:30:23;8.90;68.50
72814;DHT22;60945;48.516;-2.768;2024-03-08T04:32:49;8.80;68.70
72814;DHT22;60945;48.516;-2.768;2024-03-08T04:35:15;8.90;68.70
72814;DHT22;60945;48.516;-2.768;2024-03-08T04:37:41;8.90;68.70
72814;DHT22;60945;48.516;-2.768;2024-03-08T04:40:07;9.00;68.20
72814;DHT22;60945;48.516;-2.768;2024-03-08T04:42:33;8.90;68.50
72814;DHT22;60945;48.516;-2.768;2024-03-08T04:45:00;8.90;68.80
72814;DHT22;60945;48.516;-2.768;2024-03-08T04:47:26;8.80;68.70
72814;DHT22;60945;48.516;-2.768;2024-03-08T04:49:52;8.90;68.70
72814;DHT22;60945;48.516;-2.768;2024-03-08T04:52:17;8.80;68.80
72814;DHT22;60945;48.516;-2.768;2024-03-08T04:54:43;8.90;69.00
72814;DHT22;60945;48.516;-2.768;2024-03-08T04:57:10;8.80;69.00
72814;DHT22;60945;48.516;-2.768;2024-03-08T04:59:36;8.80;68.90
72814;DHT22;60945;48.516;-2.768;2024-03-08T05:02:02;8.80;68.70
72814;DHT22;60945;48.516;-2.768;2024-03-08T05:04:28;8.80;68.70
72814;DHT22;60945;48.516;-2.768;2024-03-08T05:06:54;8.80;68.50
72814;DHT22;60945;48.516;-2.768;2024-03-08T05:09:20;8.70;68.70
72814;DHT22;60945;48.516;-2.768;2024-03-08T05:11:47;8.70;69.00
72814;DHT22;60945;48.516;-2.768;2024-03-08T05:14:14;8.70;68.90
72814;DHT22;60945;48.516;-2.768;2024-03-08T05:16:43;8.80;68.60
72814;DHT22;60945;48.516;-2.768;2024-03-08T05:19:11;8.80;68.20
72814;DHT22;60945;48.516;-2.768;2024-03-08T05:21:36;8.80;68.40
72814;DHT22;60945;48.516;-2.768;2024-03-08T05:24:02;8.80;68.50
72814;DHT22;60945;48.516;-2.768;2024-03-08T05:26:28;8.60;68.90
72814;DHT22;60945;48.516;-2.768;2024-03-08T05:28:55;8.60;68.80
72814;DHT22;60945;48.516;-2.768;2024-03-08T05:31:22;8.70;68.60
72814;DHT22;60945;48.516;-2.768;2024-03-08T05:33:48;8.80;68.10
72814;DHT22;60945;48.516;-2.768;2024-03-08T05:36:14;8.80;68.30
72814;DHT22;60945;48.516;-2.768;2024-03-08T05:38:42;8.80;68.10
72814;DHT22;60945;48.516;-2.768;2024-03-08T05:41:09;8.70;68.20
72814;DHT22;60945;48.516;-2.768;2024-03-08T05:43:35;8.70;68.10
72814;DHT22;60945;48.516;-2.768;2024-03-08T05:46:00;8.60;68.30
72814;DHT22;60945;48.516;-2.768;2024-03-08T05:48:26;8.60;68.60
72814;DHT22;60945;48.516;-2.768;2024-03-08T05:50:51;8.60;68.60
72814;DHT22;60945;48.516;-2.768;2024-03-08T05:53:17;8.70;68.10
72814;DHT22;60945;48.516;-2.768;2024-03-08T05:55:43;8.80;67.70
72814;DHT22;60945;48.516;-2.768;2024-03-08T05:58:09;8.50;68.20
72814;DHT22;60945;48.516;-2.768;2024-03-08T06:00:35;8.50;68.50
72814;DHT22;60945;48.516;-2.768;2024-03-08T06:03:02;8.50;68.90
72814;DHT22;60945;48.516;-2.768;2024-03-08T06:05:28;8.50;68.80
72814;DHT22;60945;48.516;-2.768;2024-03-08T06:07:53;8.60;68.50
72814;DHT22;60945;48.516;-2.768;2024-03-08T06:10:19;8.60;68.60
72814;DHT22;60945;48.516;-2.768;2024-03-08T06:12:45;8.60;68.30
72814;DHT22;60945;48.516;-2.768;2024-03-08T06:15:11;8.50;68.30
72814;DHT22;60945;48.516;-2.768;2024-03-08T06:17:40;8.50;68.40
72814;DHT22;60945;48.516;-2.768;2024-03-08T06:20:07;8.50;68.70
72814;DHT22;60945;48.516;-2.768;2024-03-08T06:22:37;8.40;68.80
72814;DHT22;60945;48.516;-2.768;2024-03-08T06:25:06;8.40;68.70
72814;DHT22;60945;48.516;-2.768;2024-03-08T06:27:32;8.40;68.90
72814;DHT22;60945;48.516;-2.768;2024-03-08T06:29:59;8.40;68.80
72814;DHT22;60945;48.516;-2.768;2024-03-08T06:32:25;8.50;68.70
72814;DHT22;60945;48.516;-2.768;2024-03-08T06:34:51;8.40;69.00
72814;DHT22;60945;48.516;-2.768;2024-03-08T06:37:17;8.50;68.60
72814;DHT22;60945;48.516;-2.768;2024-03-08T06:39:47;8.40;68.90
72814;DHT22;60945;48.516;-2.768;2024-03-08T06:42:13;8.40;68.80
72814;DHT22;60945;48.516;-2.768;2024-03-08T06:44:39;8.50;68.80
72814;DHT22;60945;48.516;-2.768;2024-03-08T06:47:14;8.50;68.80
72814;DHT22;60945;48.516;-2.768;2024-03-08T06:49:41;8.30;69.10
72814;DHT22;60945;48.516;-2.768;2024-03-08T06:52:07;8.30;69.50
72814;DHT22;60945;48.516;-2.768;2024-03-08T06:54:34;8.30;69.50
72814;DHT22;60945;48.516;-2.768;2024-03-08T06:57:05;8.20;69.60
72814;DHT22;60945;48.516;-2.768;2024-03-08T06:59:33;8.10;70.30
72814;DHT22;60945;48.516;-2.768;2024-03-08T07:02:01;8.10;70.30
72814;DHT22;60945;48.516;-2.768;2024-03-08T07:04:27;8.00;70.20
72814;DHT22;60945;48.516;-2.768;2024-03-08T07:06:55;8.10;70.50
72814;DHT22;60945;48.516;-2.768;2024-03-08T07:09:23;8.10;70.50
72814;DHT22;60945;48.516;-2.768;2024-03-08T07:11:50;8.10;70.50
72814;DHT22;60945;48.516;-2.768;2024-03-08T07:14:21;8.10;70.20
72814;DHT22;60945;48.516;-2.768;2024-03-08T07:16:47;8.10;70.60
72814;DHT22;60945;48.516;-2.768;2024-03-08T07:19:13;8.10;70.50
72814;DHT22;60945;48.516;-2.768;2024-03-08T07:21:39;8.10;70.60
72814;DHT22;60945;48.516;-2.768;2024-03-08T07:24:04;8.00;70.60
72814;DHT22;60945;48.516;-2.768;2024-03-08T07:26:45;8.00;71.00
72814;DHT22;60945;48.516;-2.768;2024-03-08T07:29:17;7.90;71.00
72814;DHT22;60945;48.516;-2.768;2024-03-08T07:31:43;7.80;71.40
72814;DHT22;60945;48.516;-2.768;2024-03-08T07:34:39;7.90;71.20
72814;DHT22;60945;48.516;-2.768;2024-03-08T07:37:06;8.00;71.10
72814;DHT22;60945;48.516;-2.768;2024-03-08T07:39:37;7.90;71.00
72814;DHT22;60945;48.516;-2.768;2024-03-08T07:42:03;7.90;71.30
72814;DHT22;60945;48.516;-2.768;2024-03-08T07:44:29;7.90;71.20
72814;DHT22;60945;48.516;-2.768;2024-03-08T07:46:56;7.90;71.20
72814;DHT22;60945;48.516;-2.768;2024-03-08T07:49:21;7.80;71.60
72814;DHT22;60945;48.516;-2.768;2024-03-08T07:51:47;8.00;70.90
72814;DHT22;60945;48.516;-2.768;2024-03-08T07:54:14;7.90;71.40
72814;DHT22;60945;48.516;-2.768;2024-03-08T07:56:40;8.00;70.90
72814;DHT22;60945;48.516;-2.768;2024-03-08T07:59:06;8.20;70.70
72814;DHT22;60945;48.516;-2.768;2024-03-08T08:01:32;8.40;69.50
72814;DHT22;60945;48.516;-2.768;2024-03-08T08:03:59;8.30;69.90
72814;DHT22;60945;48.516;-2.768;2024-03-08T08:06:27;8.30;69.50
72814;DHT22;60945;48.516;-2.768;2024-03-08T08:08:52;8.30;69.90
72814;DHT22;60945;48.516;-2.768;2024-03-08T08:11:19;8.40;69.40
72814;DHT22;60945;48.516;-2.768;2024-03-08T08:13:45;8.30;69.60
72814;DHT22;60945;48.516;-2.768;2024-03-08T08:16:11;8.50;69.10
72814;DHT22;60945;48.516;-2.768;2024-03-08T08:18:38;8.60;68.50
72814;DHT22;60945;48.516;-2.768;2024-03-08T08:21:05;8.80;68.30
72814;DHT22;60945;48.516;-2.768;2024-03-08T08:23:33;9.10;67.60
72814;DHT22;60945;48.516;-2.768;2024-03-08T08:25:59;9.20;66.40
72814;DHT22;60945;48.516;-2.768;2024-03-08T08:28:27;9.20;66.90
72814;DHT22;60945;48.516;-2.768;2024-03-08T08:30:52;9.10;66.50
72814;DHT22;60945;48.516;-2.768;2024-03-08T08:33:18;9.10;66.80
72814;DHT22;60945;48.516;-2.768;2024-03-08T08:35:45;9.20;66.50
72814;DHT22;60945;48.516;-2.768;2024-03-08T08:38:10;9.30;66.20
72814;DHT22;60945;48.516;-2.768;2024-03-08T08:40:37;9.40;65.60
72814;DHT22;60945;48.516;-2.768;2024-03-08T08:43:02;9.40;65.60
72814;DHT22;60945;48.516;-2.768;2024-03-08T08:45:31;9.60;64.90
72814;DHT22;60945;48.516;-2.768;2024-03-08T08:47:57;9.50;65.50
72814;DHT22;60945;48.516;-2.768;2024-03-08T08:50:25;9.50;65.00
72814;DHT22;60945;48.516;-2.768;2024-03-08T08:52:52;9.80;65.10
72814;DHT22;60945;48.516;-2.768;2024-03-08T08:55:21;9.90;64.00
72814;DHT22;60945;48.516;-2.768;2024-03-08T08:57:51;9.90;64.00
72814;DHT22;60945;48.516;-2.768;2024-03-08T09:00:20;9.80;64.20
72814;DHT22;60945;48.516;-2.768;2024-03-08T09:02:49;9.80;64.60
72814;DHT22;60945;48.516;-2.768;2024-03-08T09:05:16;9.80;64.20
72814;DHT22;60945;48.516;-2.768;2024-03-08T09:07:45;9.50;65.10
72814;DHT22;60945;48.516;-2.768;2024-03-08T09:10:11;9.40;65.40
72814;DHT22;60945;48.516;-2.768;2024-03-08T09:12:38;9.70;65.00
72814;DHT22;60945;48.516;-2.768;2024-03-08T09:15:05;9.60;65.10
72814;DHT22;60945;48.516;-2.768;2024-03-08T09:17:33;9.90;65.10
72814;DHT22;60945;48.516;-2.768;2024-03-08T09:19:59;10.00;64.10
72814;DHT22;60945;48.516;-2.768;2024-03-08T09:22:25;10.10;63.50
72814;DHT22;60945;48.516;-2.768;2024-03-08T09:24:51;10.10;63.80
72814;DHT22;60945;48.516;-2.768;2024-03-08T09:27:17;10.20;63.60
72814;DHT22;60945;48.516;-2.768;2024-03-08T09:29:43;10.60;62.70
72814;DHT22;60945;48.516;-2.768;2024-03-08T09:32:10;10.70;61.40
72814;DHT22;60945;48.516;-2.768;2024-03-08T09:34:37;11.00;61.10
72814;DHT22;60945;48.516;-2.768;2024-03-08T09:37:03;11.40;59.50
72814;DHT22;60945;48.516;-2.768;2024-03-08T09:39:29;11.00;60.30
72814;DHT22;60945;48.516;-2.768;2024-03-08T09:41:55;11.40;59.90
72814;DHT22;60945;48.516;-2.768;2024-03-08T09:44:22;11.50;59.30
72814;DHT22;60945;48.516;-2.768;2024-03-08T09:46:49;11.60;59.10
72814;DHT22;60945;48.516;-2.768;2024-03-08T09:49:18;11.90;58.00
72814;DHT22;60945;48.516;-2.768;2024-03-08T09:51:45;11.80;58.30
72814;DHT22;60945;48.516;-2.768;2024-03-08T09:54:11;11.70;58.40
72814;DHT22;60945;48.516;-2.768;2024-03-08T09:56:39;12.20;57.60
72814;DHT22;60945;48.516;-2.768;2024-03-08T09:59:09;12.30;57.50
72814;DHT22;60945;48.516;-2.768;2024-03-08T10:01:54;12.40;57.10
72814;DHT22;60945;48.516;-2.768;2024-03-08T10:04:24;12.50;56.20
72814;DHT22;60945;48.516;-2.768;2024-03-08T10:06:51;12.20;57.30
72814;DHT22;60945;48.516;-2.768;2024-03-08T10:09:18;12.30;57.30
72814;DHT22;60945;48.516;-2.768;2024-03-08T10:11:44;12.20;57.30
72814;DHT22;60945;48.516;-2.768;2024-03-08T10:14:10;11.90;58.80
72814;DHT22;60945;48.516;-2.768;2024-03-08T10:16:39;11.60;59.20
72814;DHT22;60945;48.516;-2.768;2024-03-08T10:19:05;11.40;60.50
72814;DHT22;60945;48.516;-2.768;2024-03-08T10:21:32;11.80;59.20
72814;DHT22;60945;48.516;-2.768;2024-03-08T10:23:58;11.50;59.70
72814;DHT22;60945;48.516;-2.768;2024-03-08T10:26:24;11.00;61.30
72814;DHT22;60945;48.516;-2.768;2024-03-08T10:28:52;11.20;61.50
72814;DHT22;60945;48.516;-2.768;2024-03-08T10:31:19;11.30;61.30
72814;DHT22;60945;48.516;-2.768;2024-03-08T10:33:45;11.40;60.60
72814;DHT22;60945;48.516;-2.768;2024-03-08T10:36:13;11.30;61.10
72814;DHT22;60945;48.516;-2.768;2024-03-08T10:38:41;11.60;61.10
72814;DHT22;60945;48.516;-2.768;2024-03-08T10:41:08;11.80;60.10
72814;DHT22;60945;48.516;-2.768;2024-03-08T10:46:36;12.00;59.50
72814;DHT22;60945;48.516;-2.768;2024-03-08T10:49:08;11.90;59.90
72814;DHT22;60945;48.516;-2.768;2024-03-08T10:51:38;12.10;59.60
72814;DHT22;60945;48.516;-2.768;2024-03-08T10:54:04;12.20;59.20
72814;DHT22;60945;48.516;-2.768;2024-03-08T10:56:32;12.20;59.20
72814;DHT22;60945;48.516;-2.768;2024-03-08T10:58:58;12.50;58.40
72814;DHT22;60945;48.516;-2.768;2024-03-08T11:01:24;12.70;58.40
72814;DHT22;60945;48.516;-2.768;2024-03-08T11:03:51;12.90;57.40
72814;DHT22;60945;48.516;-2.768;2024-03-08T11:06:19;13.20;57.20
72814;DHT22;60945;48.516;-2.768;2024-03-08T11:08:48;13.50;56.30
72814;DHT22;60945;48.516;-2.768;2024-03-08T11:11:29;13.60;55.90
72814;DHT22;60945;48.516;-2.768;2024-03-08T11:13:58;13.10;57.00
72814;DHT22;60945;48.516;-2.768;2024-03-08T11:18:59;13.10;57.50
72814;DHT22;60945;48.516;-2.768;2024-03-08T11:21:31;13.20;57.40
72814;DHT22;60945;48.516;-2.768;2024-03-08T11:24:10;12.60;58.80
72814;DHT22;60945;48.516;-2.768;2024-03-08T11:26:37;13.20;57.50
72814;DHT22;60945;48.516;-2.768;2024-03-08T11:32:08;13.20;57.40
72814;DHT22;60945;48.516;-2.768;2024-03-08T11:34:42;13.70;56.40
72814;DHT22;60945;48.516;-2.768;2024-03-08T11:37:18;13.90;55.90
72814;DHT22;60945;48.516;-2.768;2024-03-08T11:39:50;14.10;55.10
72814;DHT22;60945;48.516;-2.768;2024-03-08T11:42:18;13.90;56.20
72814;DHT22;60945;48.516;-2.768;2024-03-08T11:44:47;14.20;55.30
72814;DHT22;60945;48.516;-2.768;2024-03-08T11:47:13;14.20;55.40
72814;DHT22;60945;48.516;-2.768;2024-03-08T11:49:40;14.20;55.00
72814;DHT22;60945;48.516;-2.768;2024-03-08T11:52:16;13.90;55.70
72814;DHT22;60945;48.516;-2.768;2024-03-08T11:54:54;13.80;56.60
72814;DHT22;60945;48.516;-2.768;2024-03-08T11:57:25;14.10;55.90
72814;DHT22;60945;48.516;-2.768;2024-03-08T11:59:55;14.70;54.80
72814;DHT22;60945;48.516;-2.768;2024-03-08T12:02:22;14.70;54.00
72814;DHT22;60945;48.516;-2.768;2024-03-08T12:04:59;14.10;56.00
72814;DHT22;60945;48.516;-2.768;2024-03-08T12:07:25;14.10;56.50
72814;DHT22;60945;48.516;-2.768;2024-03-08T12:10:18;14.50;55.50
72814;DHT22;60945;48.516;-2.768;2024-03-08T12:12:49;15.10;54.20
72814;DHT22;60945;48.516;-2.768;2024-03-08T12:15:17;15.10;53.80
72814;DHT22;60945;48.516;-2.768;2024-03-08T12:17:44;14.70;54.90
72814;DHT22;60945;48.516;-2.768;2024-03-08T12:20:17;14.80;54.90
72814;DHT22;60945;48.516;-2.768;2024-03-08T12:22:44;15.10;54.30
72814;DHT22;60945;48.516;-2.768;2024-03-08T12:25:13;14.70;55.50
72814;DHT22;60945;48.516;-2.768;2024-03-08T12:27:41;14.70;55.60
72814;DHT22;60945;48.516;-2.768;2024-03-08T12:30:46;15.00;55.40
72814;DHT22;60945;48.516;-2.768;2024-03-08T12:33:12;15.40;54.40
72814;DHT22;60945;48.516;-2.768;2024-03-08T12:35:38;15.60;53.10
72814;DHT22;60945;48.516;-2.768;2024-03-08T12:38:04;15.60;53.60
72814;DHT22;60945;48.516;-2.768;2024-03-08T12:40:32;15.10;54.30
72814;DHT22;60945;48.516;-2.768;2024-03-08T12:43:00;14.80;55.30
72814;DHT22;60945;48.516;-2.768;2024-03-08T12:45:26;14.90;55.30
72814;DHT22;60945;48.516;-2.768;2024-03-08T12:47:52;15.00;55.40
72814;DHT22;60945;48.516;-2.768;2024-03-08T12:50:22;15.10;55.10
72814;DHT22;60945;48.516;-2.768;2024-03-08T12:52:48;15.10;55.00
72814;DHT22;60945;48.516;-2.768;2024-03-08T12:55:14;15.20;55.00
72814;DHT22;60945;48.516;-2.768;2024-03-08T12:57:42;15.10;55.70
72814;DHT22;60945;48.516;-2.768;2024-03-08T13:00:08;15.30;54.80
72814;DHT22;60945;48.516;-2.768;2024-03-08T13:02:45;15.30;55.00
72814;DHT22;60945;48.516;-2.768;2024-03-08T13:05:11;15.40;54.30
72814;DHT22;60945;48.516;-2.768;2024-03-08T13:07:42;15.40;54.40
72814;DHT22;60945;48.516;-2.768;2024-03-08T13:10:15;16.00;53.30
72814;DHT22;60945;48.516;-2.768;2024-03-08T13:12:44;15.90;52.80
72814;DHT22;60945;48.516;-2.768;2024-03-08T13:15:10;15.70;53.70
72814;DHT22;60945;48.516;-2.768;2024-03-08T13:17:49;15.30;54.80
72814;DHT22;60945;48.516;-2.768;2024-03-08T13:20:15;15.30;55.40
72814;DHT22;60945;48.516;-2.768;2024-03-08T13:22:45;15.50;55.00
72814;DHT22;60945;48.516;-2.768;2024-03-08T13:25:12;15.70;54.40
72814;DHT22;60945;48.516;-2.768;2024-03-08T13:27:41;16.30;53.50
72814;DHT22;60945;48.516;-2.768;2024-03-08T13:30:09;16.40;52.80
72814;DHT22;60945;48.516;-2.768;2024-03-08T13:32:41;16.50;52.30
72814;DHT22;60945;48.516;-2.768;2024-03-08T13:35:11;16.40;52.50
72814;DHT22;60945;48.516;-2.768;2024-03-08T13:37:40;16.90;51.80
72814;DHT22;60945;48.516;-2.768;2024-03-08T13:40:06;17.30;50.70
72814;DHT22;60945;48.516;-2.768;2024-03-08T13:42:38;17.40;50.60
72814;DHT22;60945;48.516;-2.768;2024-03-08T13:45:08;18.70;47.60
72814;DHT22;60945;48.516;-2.768;2024-03-08T13:47:38;19.90;44.90
72814;DHT22;60945;48.516;-2.768;2024-03-08T13:50:07;19.90;44.40
72814;DHT22;60945;48.516;-2.768;2024-03-08T13:52:40;18.50;46.60
72814;DHT22;60945;48.516;-2.768;2024-03-08T13:55:06;19.00;46.90
72814;DHT22;60945;48.516;-2.768;2024-03-08T13:57:35;20.40;43.60
72814;DHT22;60945;48.516;-2.768;2024-03-08T14:00:02;21.30;42.40
72814;DHT22;60945;48.516;-2.768;2024-03-08T14:02:28;23.30;38.60
72814;DHT22;60945;48.516;-2.768;2024-03-08T14:04:58;23.50;38.10
72814;DHT22;60945;48.516;-2.768;2024-03-08T14:07:26;22.30;39.60
72814;DHT22;60945;48.516;-2.768;2024-03-08T14:09:54;20.50;43.00
72814;DHT22;60945;48.516;-2.768;2024-03-08T14:12:22;19.10;45.70
72814;DHT22;60945;48.516;-2.768;2024-03-08T14:14:54;18.40;47.70
72814;DHT22;60945;48.516;-2.768;2024-03-08T14:17:20;17.60;49.40
72814;DHT22;60945;48.516;-2.768;2024-03-08T14:19:46;16.90;51.00
72814;DHT22;60945;48.516;-2.768;2024-03-08T14:22:11;16.90;51.80
72814;DHT22;60945;48.516;-2.768;2024-03-08T14:24:43;17.20;51.10
72814;DHT22;60945;48.516;-2.768;2024-03-08T14:27:10;17.20;50.80
72814;DHT22;60945;48.516;-2.768;2024-03-08T14:29:38;16.90;51.50
72814;DHT22;60945;48.516;-2.768;2024-03-08T14:32:07;16.80;51.80
72814;DHT22;60945;48.516;-2.768;2024-03-08T14:34:33;16.80;51.90
72814;DHT22;60945;48.516;-2.768;2024-03-08T14:37:00;16.70;52.00
72814;DHT22;60945;48.516;-2.768;2024-03-08T14:39:26;16.70;52.20
72814;DHT22;60945;48.516;-2.768;2024-03-08T14:41:55;16.80;51.90
72814;DHT22;60945;48.516;-2.768;2024-03-08T14:44:22;17.10;51.50
72814;DHT22;60945;48.516;-2.768;2024-03-08T14:46:57;17.30;51.20
72814;DHT22;60945;48.516;-2.768;2024-03-08T14:49:24;16.70;52.50
72814;DHT22;60945;48.516;-2.768;2024-03-08T14:51:51;16.40;53.40
72814;DHT22;60945;48.516;-2.768;2024-03-08T14:54:17;15.90;54.80
72814;DHT22;60945;48.516;-2.768;2024-03-08T14:56:48;15.70;55.40
72814;DHT22;60945;48.516;-2.768;2024-03-08T14:59:16;15.10;57.10
72814;DHT22;60945;48.516;-2.768;2024-03-08T15:01:42;15.00;57.50
72814;DHT22;60945;48.516;-2.768;2024-03-08T15:04:09;14.70;58.50
72814;DHT22;60945;48.516;-2.768;2024-03-08T15:06:38;14.50;59.50
72814;DHT22;60945;48.516;-2.768;2024-03-08T15:09:05;14.40;59.70
72814;DHT22;60945;48.516;-2.768;2024-03-08T15:11:40;14.30;60.10
72814;DHT22;60945;48.516;-2.768;2024-03-08T15:14:07;14.30;60.20
72814;DHT22;60945;48.516;-2.768;2024-03-08T15:16:39;14.30;60.20
72814;DHT22;60945;48.516;-2.768;2024-03-08T15:19:06;14.20;60.70
72814;DHT22;60945;48.516;-2.768;2024-03-08T15:21:32;14.50;60.10
72814;DHT22;60945;48.516;-2.768;2024-03-08T15:24:00;14.60;59.50
72814;DHT22;60945;48.516;-2.768;2024-03-08T15:26:30;14.70;59.40
72814;DHT22;60945;48.516;-2.768;2024-03-08T15:28:57;14.60;59.60
72814;DHT22;60945;48.516;-2.768;2024-03-08T15:31:23;14.50;59.60
72814;DHT22;60945;48.516;-2.768;2024-03-08T15:33:52;14.50;59.70
72814;DHT22;60945;48.516;-2.768;2024-03-08T15:36:26;14.20;60.60
72814;DHT22;60945;48.516;-2.768;2024-03-08T15:38:54;14.30;60.50